sensor_id;sensor_type;location;lat;lon;timestamp;temperature;humidity
20568;DHT22;10442;49.932;11.592;2023-03-03T00:01:04;2.20;66.00
20568;DHT22;10442;49.932;11.592;2023-03-03T00:03:32;2.20;66.00
20568;DHT22;10442;49.932;11.592;2023-03-03T00:06:00;2.20;66.20
20568;DHT22;10442;49.932;11.592;2023-03-03T00:08:28;2.20;66.10
20568;DHT22;10442;49.932;11.592;2023-03-03T00:10:56;2.20;66.00
20568;DHT22;10442;49.932;11.592;2023-03-03T00:13:24;2.20;65.90
20568;DHT22;10442;49.932;11.592;2023-03-03T00:15:52;2.20;66.10
20568;DHT22;10442;49.932;11.592;2023-03-03T00:18:28;2.10;65.80
20568;DHT22;10442;49.932;11.592;2023-03-03T00:20:58;2.10;65.90
20568;DHT22;10442;49.932;11.592;2023-03-03T00:23:35;2.10;65.90
20568;DHT22;10442;49.932;11.592;2023-03-03T00:26:26;2.10;66.10
20568;DHT22;10442;49.932;11.592;2023-03-03T00:28:55;2.00;66.30
20568;DHT22;10442;49.932;11.592;2023-03-03T00:31:33;2.00;65.80
20568;DHT22;10442;49.932;11.592;2023-03-03T00:34:26;2.00;65.90
20568;DHT22;10442;49.932;11.592;2023-03-03T00:36:56;2.00;66.00
20568;DHT22;10442;49.932;11.592;2023-03-03T00:39:36;2.00;65.70
20568;DHT22;10442;49.932;11.592;2023-03-03T00:42:13;2.00;65.90
20568;DHT22;10442;49.932;11.592;2023-03-03T00:44:43;2.00;65.80
20568;DHT22;10442;49.932;11.592;2023-03-03T00:47:24;2.00;65.70
20568;DHT22;10442;49.932;11.592;2023-03-03T00:49:55;2.00;65.90
20568;DHT22;10442;49.932;11.592;2023-03-03T00:52:26;1.90;65.80
20568;DHT22;10442;49.932;11.592;2023-03-03T00:54:55;1.90;65.90
20568;DHT22;10442;49.932;11.592;2023-03-03T00:57:22;1.90;65.80
20568;DHT22;10442;49.932;11.592;2023-03-03T00:59:50;1.90;66.50
20568;DHT22;10442;49.932;11.592;2023-03-03T01:02:18;1.90;65.80
20568;DHT22;10442;49.932;11.592;2023-03-03T01:04:50;1.90;65.70
20568;DHT22;10442;49.932;11.592;2023-03-03T01:07:18;1.90;65.80
20568;DHT22;10442;49.932;11.592;2023-03-03T01:09:45;1.80;65.70
20568;DHT22;10442;49.932;11.592;2023-03-03T01:12:13;1.80;65.80
20568;DHT22;10442;49.932;11.592;2023-03-03T01:14:41;1.80;65.90
20568;DHT22;10442;49.932;11.592;2023-03-03T01:17:08;1.80;65.90
20568;DHT22;10442;49.932;11.592;2023-03-03T01:19:36;1.70;66.20
20568;DHT22;10442;49.932;11.592;2023-03-03T01:22:03;1.70;66.60
20568;DHT22;10442;49.932;11.592;2023-03-03T01:24:30;1.70;67.50
20568;DHT22;10442;49.932;11.592;2023-03-03T01:26:58;1.70;66.60
20568;DHT22;10442;49.932;11.592;2023-03-03T01:29:25;1.60;66.70
20568;DHT22;10442;49.932;11.592;2023-03-03T01:31:53;1.60;66.70
20568;DHT22;10442;49.932;11.592;2023-03-03T01:34:21;1.60;66.80
20568;DHT22;10442;49.932;11.592;2023-03-03T01:36:48;1.60;67.00
20568;DHT22;10442;49.932;11.592;2023-03-03T01:39:15;1.60;66.80
20568;DHT22;10442;49.932;11.592;2023-03-03T01:41:43;1.50;66.60
20568;DHT22;10442;49.932;11.592;2023-03-03T01:44:13;1.50;66.40
20568;DHT22;10442;49.932;11.592;2023-03-03T01:47:06;1.50;66.60
20568;DHT22;10442;49.932;11.592;2023-03-03T01:49:57;1.50;66.90
20568;DHT22;10442;49.932;11.592;2023-03-03T01:52:35;1.50;67.00
20568;DHT22;10442;49.932;11.592;2023-03-03T01:55:07;1.40;67.00
20568;DHT22;10442;49.932;11.592;2023-03-03T01:57:40;1.40;66.90
20568;DHT22;10442;49.932;11.592;2023-03-03T02:00:10;1.30;67.10
20568;DHT22;10442;49.932;11.592;2023-03-03T02:02:41;1.30;67.10
20568;DHT22;10442;49.932;11.592;2023-03-03T02:05:09;1.30;67.10
20568;DHT22;10442;49.932;11.592;2023-03-03T02:07:37;1.30;66.90
20568;DHT22;10442;49.932;11.592;2023-03-03T02:10:11;1.30;66.80
20568;DHT22;10442;49.932;11.592;2023-03-03T02:12:43;1.30;66.90
20568;DHT22;10442;49.932;11.592;2023-03-03T02:15:34;1.20;67.00
20568;DHT22;10442;49.932;11.592;2023-03-03T02:18:12;1.20;67.30
20568;DHT22;10442;49.932;11.592;2023-03-03T02:20:49;1.20;67.00
20568;DHT22;10442;49.932;11.592;2023-03-03T02:23:35;1.20;67.10
20568;DHT22;10442;49.932;11.592;2023-03-03T02:26:20;1.10;67.20
20568;DHT22;10442;49.932;11.592;2023-03-03T02:28:54;1.10;67.40
20568;DHT22;10442;49.932;11.592;2023-03-03T02:31:24;1.10;67.10
20568;DHT22;10442;49.932;11.592;2023-03-03T02:33:54;1.00;67.20
20568;DHT22;10442;49.932;11.592;2023-03-03T02:36:25;1.00;67.30
20568;DHT22;10442;49.932;11.592;2023-03-03T02:39:00;1.00;67.50
20568;DHT22;10442;49.932;11.592;2023-03-03T02:44:27;0.90;67.90
20568;DHT22;10442;49.932;11.592;2023-03-03T02:46:58;0.90;67.40
20568;DHT22;10442;49.932;11.592;2023-03-03T02:49:29;0.90;67.60
20568;DHT22;10442;49.932;11.592;2023-03-03T02:51:59;0.90;67.90
20568;DHT22;10442;49.932;11.592;2023-03-03T02:54:28;0.90;68.00
20568;DHT22;10442;49.932;11.592;2023-03-03T02:56:59;0.90;68.00
20568;DHT22;10442;49.932;11.592;2023-03-03T02:59:27;0.90;67.90
20568;DHT22;10442;49.932;11.592;2023-03-03T03:01:57;0.90;67.80
20568;DHT22;10442;49.932;11.592;2023-03-03T03:04:26;0.90;67.60
20568;DHT22;10442;49.932;11.592;2023-03-03T03:06:55;0.80;67.50
20568;DHT22;10442;49.932;11.592;2023-03-03T03:09:24;0.80;67.70
20568;DHT22;10442;49.932;11.592;2023-03-03T03:11:53;0.80;67.80
20568;DHT22;10442;49.932;11.592;2023-03-03T03:14:24;0.80;67.90
20568;DHT22;10442;49.932;11.592;2023-03-03T03:16:53;0.80;67.80
20568;DHT22;10442;49.932;11.592;2023-03-03T03:19:21;0.80;67.80
20568;DHT22;10442;49.932;11.592;2023-03-03T03:21:49;0.70;67.90
20568;DHT22;10442;49.932;11.592;2023-03-03T03:24:17;0.70;67.90
20568;DHT22;10442;49.932;11.592;2023-03-03T03:26:51;0.70;68.00
20568;DHT22;10442;49.932;11.592;2023-03-03T03:29:20;0.70;68.30
20568;DHT22;10442;49.932;11.592;2023-03-03T03:31:48;0.70;68.40
20568;DHT22;10442;49.932;11.592;2023-03-03T03:34:15;0.70;68.30
20568;DHT22;10442;49.932;11.592;2023-03-03T03:36:43;0.70;68.10
20568;DHT22;10442;49.932;11.592;2023-03-03T03:39:14;0.60;67.90
20568;DHT22;10442;49.932;11.592;2023-03-03T03:41:45;0.60;67.80
20568;DHT22;10442;49.932;11.592;2023-03-03T03:44:13;0.60;67.90
20568;DHT22;10442;49.932;11.592;2023-03-03T03:46:40;0.60;67.90
20568;DHT22;10442;49.932;11.592;2023-03-03T03:49:09;0.60;68.00
20568;DHT22;10442;49.932;11.592;2023-03-03T03:51:37;0.50;68.00
20568;DHT22;10442;49.932;11.592;2023-03-03T03:54:10;0.50;68.10
20568;DHT22;10442;49.932;11.592;2023-03-03T03:56:38;0.50;68.20
20568;DHT22;10442;49.932;11.592;2023-03-03T03:59:06;0.50;68.20
20568;DHT22;10442;49.932;11.592;2023-03-03T04:01:34;0.60;68.30
20568;DHT22;10442;49.932;11.592;2023-03-03T04:04:02;0.50;68.20
20568;DHT22;10442;49.932;11.592;2023-03-03T04:06:31;0.50;68.20
20568;DHT22;10442;49.932;11.592;2023-03-03T04:08:59;0.50;68.10
20568;DHT22;10442;49.932;11.592;2023-03-03T04:11:28;0.50;68.30
20568;DHT22;10442;49.932;11.592;2023-03-03T04:13:56;0.50;68.60
20568;DHT22;10442;49.932;11.592;2023-03-03T04:16:23;0.50;68.60
20568;DHT22;10442;49.932;11.592;2023-03-03T04:18:51;0.50;68.50
20568;DHT22;10442;49.932;11.592;2023-03-03T04:21:19;0.50;68.30
20568;DHT22;10442;49.932;11.592;2023-03-03T04:23:48;0.50;68.20
20568;DHT22;10442;49.932;11.592;2023-03-03T04:26:16;0.50;68.10
20568;DHT22;10442;49.932;11.592;2023-03-03T04:28:45;0.50;68.10
20568;DHT22;10442;49.932;11.592;2023-03-03T04:31:12;0.50;68.30
20568;DHT22;10442;49.932;11.592;2023-03-03T04:33:40;0.50;68.60
20568;DHT22;10442;49.932;11.592;2023-03-03T04:36:08;0.50;68.80
20568;DHT22;10442;49.932;11.592;2023-03-03T04:38:37;0.50;68.90
20568;DHT22;10442;49.932;11.592;2023-03-03T04:41:05;0.40;68.80
20568;DHT22;10442;49.932;11.592;2023-03-03T04:43:35;0.40;68.80
20568;DHT22;10442;49.932;11.592;2023-03-03T04:46:04;0.40;69.00
20568;DHT22;10442;49.932;11.592;2023-03-03T04:48:32;0.40;69.10
20568;DHT22;10442;49.932;11.592;2023-03-03T04:51:00;0.40;69.20
20568;DHT22;10442;49.932;11.592;2023-03-03T04:53:28;0.40;69.20
20568;DHT22;10442;49.932;11.592;2023-03-03T04:55:56;0.40;69.40
20568;DHT22;10442;49.932;11.592;2023-03-03T04:58:23;0.40;69.20
20568;DHT22;10442;49.932;11.592;2023-03-03T05:00:54;0.30;69.10
20568;DHT22;10442;49.932;11.592;2023-03-03T05:03:22;0.30;69.20
20568;DHT22;10442;49.932;11.592;2023-03-03T05:05:50;0.30;69.10
20568;DHT22;10442;49.932;11.592;2023-03-03T05:08:18;0.30;69.10
20568;DHT22;10442;49.932;11.592;2023-03-03T05:10:45;0.30;69.00
20568;DHT22;10442;49.932;11.592;2023-03-03T05:13:12;0.30;69.90
20568;DHT22;10442;49.932;11.592;2023-03-03T05:15:47;0.30;69.10
20568;DHT22;10442;49.932;11.592;2023-03-03T05:18:15;0.30;69.00
20568;DHT22;10442;49.932;11.592;2023-03-03T05:20:42;0.20;68.90
20568;DHT22;10442;49.932;11.592;2023-03-03T05:23:10;0.20;68.80
20568;DHT22;10442;49.932;11.592;2023-03-03T05:25:39;0.20;68.90
20568;DHT22;10442;49.932;11.592;2023-03-03T05:28:09;0.30;69.00
20568;DHT22;10442;49.932;11.592;2023-03-03T05:30:36;0.20;68.90
20568;DHT22;10442;49.932;11.592;2023-03-03T05:33:04;0.20;69.10
20568;DHT22;10442;49.932;11.592;2023-03-03T05:35:33;0.20;69.20
20568;DHT22;10442;49.932;11.592;2023-03-03T05:38:00;0.20;69.50
20568;DHT22;10442;49.932;11.592;2023-03-03T05:40:32;0.20;69.60
20568;DHT22;10442;49.932;11.592;2023-03-03T05:43:01;0.20;69.50
20568;DHT22;10442;49.932;11.592;2023-03-03T05:45:28;0.20;69.80
20568;DHT22;10442;49.932;11.592;2023-03-03T05:47:56;0.20;70.00
20568;DHT22;10442;49.932;11.592;2023-03-03T05:50:23;0.20;69.90
20568;DHT22;10442;49.932;11.592;2023-03-03T05:52:52;0.20;69.70
20568;DHT22;10442;49.932;11.592;2023-03-03T05:55:19;0.20;69.50
20568;DHT22;10442;49.932;11.592;2023-03-03T05:57:47;0.20;69.40
20568;DHT22;10442;49.932;11.592;2023-03-03T06:00:15;0.20;69.40
20568;DHT22;10442;49.932;11.592;2023-03-03T06:02:43;0.20;69.40
20568;DHT22;10442;49.932;11.592;2023-03-03T06:05:10;0.20;69.40
20568;DHT22;10442;49.932;11.592;2023-03-03T06:07:39;0.40;69.50
20568;DHT22;10442;49.932;11.592;2023-03-03T06:10:07;0.30;69.40
20568;DHT22;10442;49.932;11.592;2023-03-03T06:12:37;0.20;69.60
20568;DHT22;10442;49.932;11.592;2023-03-03T06:15:06;0.30;70.00
20568;DHT22;10442;49.932;11.592;2023-03-03T06:17:34;0.30;70.00
20568;DHT22;10442;49.932;11.592;2023-03-03T06:20:01;0.40;70.00
20568;DHT22;10442;49.932;11.592;2023-03-03T06:22:30;0.40;70.00
20568;DHT22;10442;49.932;11.592;2023-03-03T06:24:57;0.40;70.00
20568;DHT22;10442;49.932;11.592;2023-03-03T06:27:25;0.50;70.10
20568;DHT22;10442;49.932;11.592;2023-03-03T06:29:53;0.50;70.20
20568;DHT22;10442;49.932;11.592;2023-03-03T06:32:21;0.60;70.20
20568;DHT22;10442;49.932;11.592;2023-03-03T06:34:49;0.60;70.30
20568;DHT22;10442;49.932;11.592;2023-03-03T06:37:16;0.70;70.50
20568;DHT22;10442;49.932;11.592;2023-03-03T06:39:44;0.80;71.30
20568;DHT22;10442;49.932;11.592;2023-03-03T06:42:11;0.90;70.60
20568;DHT22;10442;49.932;11.592;2023-03-03T06:44:39;0.90;70.80
20568;DHT22;10442;49.932;11.592;2023-03-03T06:47:06;1.10;71.00
20568;DHT22;10442;49.932;11.592;2023-03-03T06:49:34;1.20;71.30
20568;DHT22;10442;49.932;11.592;2023-03-03T06:52:10;1.40;72.10
20568;DHT22;10442;49.932;11.592;2023-03-03T06:54:38;1.60;73.50
20568;DHT22;10442;49.932;11.592;2023-03-03T06:57:16;2.00;74.10
20568;DHT22;10442;49.932;11.592;2023-03-03T06:59:44;2.40;74.50
20568;DHT22;10442;49.932;11.592;2023-03-03T07:02:15;2.90;74.30
20568;DHT22;10442;49.932;11.592;2023-03-03T07:04:44;3.40;73.90
20568;DHT22;10442;49.932;11.592;2023-03-03T07:07:23;3.90;73.10
20568;DHT22;10442;49.932;11.592;2023-03-03T07:09:55;4.50;72.60
20568;DHT22;10442;49.932;11.592;2023-03-03T07:12:27;5.00;71.60
20568;DHT22;10442;49.932;11.592;2023-03-03T07:15:11;5.50;70.80
20568;DHT22;10442;49.932;11.592;2023-03-03T07:17:48;6.00;69.30
20568;DHT22;10442;49.932;11.592;2023-03-03T07:20:31;6.50;67.80
20568;DHT22;10442;49.932;11.592;2023-03-03T07:22:59;6.90;66.60
20568;DHT22;10442;49.932;11.592;2023-03-03T07:25:32;7.30;64.90
20568;DHT22;10442;49.932;11.592;2023-03-03T07:28:25;7.60;64.60
20568;DHT22;10442;49.932;11.592;2023-03-03T07:30:54;8.00;63.80
20568;DHT22;10442;49.932;11.592;2023-03-03T07:33:33;8.40;62.70
20568;DHT22;10442;49.932;11.592;2023-03-03T07:36:02;8.60;61.60
20568;DHT22;10442;49.932;11.592;2023-03-03T07:41:00;9.30;61.20
20568;DHT22;10442;49.932;11.592;2023-03-03T07:43:50;9.70;60.20
20568;DHT22;10442;49.932;11.592;2023-03-03T07:48:49;10.50;58.40
20568;DHT22;10442;49.932;11.592;2023-03-03T07:51:35;10.80;57.90
20568;DHT22;10442;49.932;11.592;2023-03-03T07:54:37;11.20;56.80
20568;DHT22;10442;49.932;11.592;2023-03-03T07:59:54;12.00;56.50
20568;DHT22;10442;49.932;11.592;2023-03-03T08:05:28;12.90;54.70
20568;DHT22;10442;49.932;11.592;2023-03-03T08:10:50;13.60;53.20
20568;DHT22;10442;49.932;11.592;2023-03-03T08:13:23;14.00;53.30
20568;DHT22;10442;49.932;11.592;2023-03-03T08:15:56;14.40;52.00
20568;DHT22;10442;49.932;11.592;2023-03-03T08:18:28;14.60;49.60
20568;DHT22;10442;49.932;11.592;2023-03-03T08:23:43;14.50;48.60
20568;DHT22;10442;49.932;11.592;2023-03-03T08:26:11;14.20;48.90
20568;DHT22;10442;49.932;11.592;2023-03-03T08:28:40;13.90;48.90
20568;DHT22;10442;49.932;11.592;2023-03-03T08:31:07;13.60;48.90
20568;DHT22;10442;49.932;11.592;2023-03-03T08:33:51;13.50;49.20
20568;DHT22;10442;49.932;11.592;2023-03-03T08:36:18;13.30;49.10
20568;DHT22;10442;49.932;11.592;2023-03-03T08:38:46;13.30;49.30
20568;DHT22;10442;49.932;11.592;2023-03-03T08:41:13;13.30;49.90
20568;DHT22;10442;49.932;11.592;2023-03-03T08:43:41;13.40;50.20
20568;DHT22;10442;49.932;11.592;2023-03-03T08:46:11;13.60;50.50
20568;DHT22;10442;49.932;11.592;2023-03-03T08:48:39;13.80;49.80
20568;DHT22;10442;49.932;11.592;2023-03-03T08:51:07;13.80;48.80
20568;DHT22;10442;49.932;11.592;2023-03-03T08:53:35;13.90;49.00
20568;DHT22;10442;49.932;11.592;2023-03-03T08:56:04;13.90;49.30
20568;DHT22;10442;49.932;11.592;2023-03-03T08:58:33;14.10;49.40
20568;DHT22;10442;49.932;11.592;2023-03-03T09:01:03;14.30;49.20
20568;DHT22;10442;49.932;11.592;2023-03-03T09:03:31;14.60;48.00
20568;DHT22;10442;49.932;11.592;2023-03-03T09:05:58;14.70;47.50
20568;DHT22;10442;49.932;11.592;2023-03-03T09:08:26;14.70;46.70
20568;DHT22;10442;49.932;11.592;2023-03-03T09:10:53;14.70;46.10
20568;DHT22;10442;49.932;11.592;2023-03-03T09:13:21;14.50;46.20
20568;DHT22;10442;49.932;11.592;2023-03-03T09:15:48;14.40;46.50
20568;DHT22;10442;49.932;11.592;2023-03-03T09:18:26;14.10;46.70
20568;DHT22;10442;49.932;11.592;2023-03-03T09:20:57;13.80;46.60
20568;DHT22;10442;49.932;11.592;2023-03-03T09:23:34;13.50;46.80
20568;DHT22;10442;49.932;11.592;2023-03-03T09:28:54;12.80;47.30
20568;DHT22;10442;49.932;11.592;2023-03-03T09:31:37;12.50;48.30
20568;DHT22;10442;49.932;11.592;2023-03-03T09:34:19;12.20;48.90
20568;DHT22;10442;49.932;11.592;2023-03-03T09:36:51;12.00;49.40
20568;DHT22;10442;49.932;11.592;2023-03-03T09:39:24;11.70;49.60
20568;DHT22;10442;49.932;11.592;2023-03-03T09:42:01;11.50;50.10
20568;DHT22;10442;49.932;11.592;2023-03-03T09:47:44;11.20;50.70
20568;DHT22;10442;49.932;11.592;2023-03-03T09:53:18;10.80;51.10
20568;DHT22;10442;49.932;11.592;2023-03-03T10:04:42;10.30;52.70
20568;DHT22;10442;49.932;11.592;2023-03-03T10:07:37;10.20;52.60
20568;DHT22;10442;49.932;11.592;2023-03-03T10:18:41;9.80;53.20
20568;DHT22;10442;49.932;11.592;2023-03-03T10:21:23;9.70;53.30
20568;DHT22;10442;49.932;11.592;2023-03-03T10:24:00;9.60;53.70
20568;DHT22;10442;49.932;11.592;2023-03-03T10:26:35;9.50;53.80
20568;DHT22;10442;49.932;11.592;2023-03-03T10:38:27;9.20;54.80
20568;DHT22;10442;49.932;11.592;2023-03-03T10:41:32;9.20;54.50
20568;DHT22;10442;49.932;11.592;2023-03-03T10:49:37;8.90;55.00
20568;DHT22;10442;49.932;11.592;2023-03-03T10:52:25;8.90;55.00
20568;DHT22;10442;49.932;11.592;2023-03-03T10:58:02;8.90;55.30
20568;DHT22;10442;49.932;11.592;2023-03-03T11:06:25;9.00;55.50
20568;DHT22;10442;49.932;11.592;2023-03-03T11:09:26;9.00;55.40
20568;DHT22;10442;49.932;11.592;2023-03-03T11:12:26;9.10;55.40
20568;DHT22;10442;49.932;11.592;2023-03-03T11:26:20;9.50;55.40
20568;DHT22;10442;49.932;11.592;2023-03-03T11:37:02;9.80;54.20
20568;DHT22;10442;49.932;11.592;2023-03-03T11:39:30;9.80;54.30
20568;DHT22;10442;49.932;11.592;2023-03-03T11:42:15;9.90;54.10
20568;DHT22;10442;49.932;11.592;2023-03-03T11:44:49;9.90;53.80
20568;DHT22;10442;49.932;11.592;2023-03-03T11:47:30;9.90;53.70
20568;DHT22;10442;49.932;11.592;2023-03-03T11:50:08;9.90;53.20
20568;DHT22;10442;49.932;11.592;2023-03-03T11:58:18;9.90;53.60
20568;DHT22;10442;49.932;11.592;2023-03-03T12:00:53;9.90;53.50
20568;DHT22;10442;49.932;11.592;2023-03-03T12:03:40;9.90;53.80
20568;DHT22;10442;49.932;11.592;2023-03-03T12:06:38;10.00;53.70
20568;DHT22;10442;49.932;11.592;2023-03-03T12:09:12;10.00;53.80
20568;DHT22;10442;49.932;11.592;2023-03-03T12:11:48;10.10;54.10
20568;DHT22;10442;49.932;11.592;2023-03-03T12:14:39;10.20;53.00
20568;DHT22;10442;49.932;11.592;2023-03-03T12:20:21;10.30;53.00
20568;DHT22;10442;49.932;11.592;2023-03-03T12:26:05;10.40;52.30
20568;DHT22;10442;49.932;11.592;2023-03-03T12:28:40;10.40;52.20
20568;DHT22;10442;49.932;11.592;2023-03-03T12:31:33;10.40;52.40
20568;DHT22;10442;49.932;11.592;2023-03-03T12:34:18;10.40;52.30
20568;DHT22;10442;49.932;11.592;2023-03-03T12:50:42;10.10;52.50
20568;DHT22;10442;49.932;11.592;2023-03-03T12:54:16;10.00;52.70
20568;DHT22;10442;49.932;11.592;2023-03-03T12:59:39;9.90;52.90
20568;DHT22;10442;49.932;11.592;2023-03-03T13:02:28;9.90;52.90
20568;DHT22;10442;49.932;11.592;2023-03-03T13:05:20;9.80;53.20
20568;DHT22;10442;49.932;11.592;2023-03-03T13:10:51;9.80;53.40
20568;DHT22;10442;49.932;11.592;2023-03-03T13:13:30;9.80;53.50
20568;DHT22;10442;49.932;11.592;2023-03-03T13:16:11;9.80;53.10
20568;DHT22;10442;49.932;11.592;2023-03-03T13:27:07;9.70;52.60
20568;DHT22;10442;49.932;11.592;2023-03-03T13:29:41;9.70;52.90
20568;DHT22;10442;49.932;11.592;2023-03-03T13:32:16;9.70;53.20
20568;DHT22;10442;49.932;11.592;2023-03-03T13:37:41;9.60;53.20
20568;DHT22;10442;49.932;11.592;2023-03-03T13:40:15;9.60;53.30
20568;DHT22;10442;49.932;11.592;2023-03-03T13:45:24;9.60;53.50
20568;DHT22;10442;49.932;11.592;2023-03-03T13:48:31;9.60;53.30
20568;DHT22;10442;49.932;11.592;2023-03-03T13:51:25;9.50;53.00
20568;DHT22;10442;49.932;11.592;2023-03-03T13:57:22;9.50;52.60
20568;DHT22;10442;49.932;11.592;2023-03-03T14:08:08;9.40;52.80
20568;DHT22;10442;49.932;11.592;2023-03-03T14:10:48;9.30;53.10
20568;DHT22;10442;49.932;11.592;2023-03-03T14:13:24;9.30;53.40
20568;DHT22;10442;49.932;11.592;2023-03-03T14:16:18;9.30;53.60
20568;DHT22;10442;49.932;11.592;2023-03-03T14:18:57;9.30;53.90
20568;DHT22;10442;49.932;11.592;2023-03-03T14:21:36;9.30;53.90
20568;DHT22;10442;49.932;11.592;2023-03-03T14:24:15;9.30;54.50
20568;DHT22;10442;49.932;11.592;2023-03-03T14:26:51;9.30;53.90
20568;DHT22;10442;49.932;11.592;2023-03-03T14:31:53;9.30;53.70
20568;DHT22;10442;49.932;11.592;2023-03-03T14:36:51;9.30;53.60
20568;DHT22;10442;49.932;11.592;2023-03-03T14:39:36;9.30;53.40
20568;DHT22;10442;49.932;11.592;2023-03-03T14:42:35;9.30;53.30
20568;DHT22;10442;49.932;11.592;2023-03-03T14:45:28;9.40;53.40
20568;DHT22;10442;49.932;11.592;2023-03-03T14:47:58;9.40;53.60
20568;DHT22;10442;49.932;11.592;2023-03-03T14:50:39;9.40;53.50
20568;DHT22;10442;49.932;11.592;2023-03-03T14:53:15;9.30;53.60
20568;DHT22;10442;49.932;11.592;2023-03-03T14:55:51;9.30;53.30
20568;DHT22;10442;49.932;11.592;2023-03-03T15:01:30;9.30;53.10
20568;DHT22;10442;49.932;11.592;2023-03-03T15:04:02;9.30;53.30
20568;DHT22;10442;49.932;11.592;2023-03-03T15:09:29;9.20;53.30
20568;DHT22;10442;49.932;11.592;2023-03-03T15:12:01;9.10;53.10
20568;DHT22;10442;49.932;11.592;2023-03-03T15:14:38;9.10;53.30
20568;DHT22;10442;49.932;11.592;2023-03-03T15:17:25;9.00;53.40
20568;DHT22;10442;49.932;11.592;2023-03-03T15:20:17;9.00;53.50
20568;DHT22;10442;49.932;11.592;2023-03-03T15:23:10;9.00;53.60
20568;DHT22;10442;49.932;11.592;2023-03-03T15:26:25;8.90;53.50
20568;DHT22;10442;49.932;11.592;2023-03-03T15:29:04;8.90;53.60
20568;DHT22;10442;49.932;11.592;2023-03-03T15:37:08;8.60;53.70
20568;DHT22;10442;49.932;11.592;2023-03-03T16:02:14;7.90;55.00
20568;DHT22;10442;49.932;11.592;2023-03-03T16:04:55;7.70;55.10
20568;DHT22;10442;49.932;11.592;2023-03-03T16:07:48;7.60;55.40
20568;DHT22;10442;49.932;11.592;2023-03-03T16:16:31;7.30;56.10
20568;DHT22;10442;49.932;11.592;2023-03-03T16:19:10;7.20;56.20
20568;DHT22;10442;49.932;11.592;2023-03-03T16:21:59;7.10;56.50
20568;DHT22;10442;49.932;11.592;2023-03-03T16:27:33;7.00;56.90
20568;DHT22;10442;49.932;11.592;2023-03-03T16:30:24;6.90;57.00
20568;DHT22;10442;49.932;11.592;2023-03-03T16:35:42;6.70;57.10
20568;DHT22;10442;49.932;11.592;2023-03-03T16:38:18;6.60;57.30
20568;DHT22;10442;49.932;11.592;2023-03-03T16:45:46;6.40;57.60
20568;DHT22;10442;49.932;11.592;2023-03-03T16:48:40;6.30;57.60
20568;DHT22;10442;49.932;11.592;2023-03-03T16:54:00;6.00;57.80
20568;DHT22;10442;49.932;11.592;2023-03-03T16:56:51;6.00;58.20
20568;DHT22;10442;49.932;11.592;2023-03-03T16:59:35;5.90;58.30
20568;DHT22;10442;49.932;11.592;2023-03-03T17:02:13;5.80;58.40
20568;DHT22;10442;49.932;11.592;2023-03-03T17:04:57;5.70;58.50
20568;DHT22;10442;49.932;11.592;2023-03-03T17:10:36;5.50;58.60
20568;DHT22;10442;49.932;11.592;2023-03-03T17:22:01;5.20;59.00
20568;DHT22;10442;49.932;11.592;2023-03-03T17:27:33;5.10;59.70
20568;DHT22;10442;49.932;11.592;2023-03-03T17:33:10;4.90;59.80
20568;DHT22;10442;49.932;11.592;2023-03-03T17:35:50;4.80;60.10
20568;DHT22;10442;49.932;11.592;2023-03-03T17:41:47;4.70;59.70
20568;DHT22;10442;49.932;11.592;2023-03-03T17:44:59;4.60;60.00
20568;DHT22;10442;49.932;11.592;2023-03-03T17:47:07;4.50;60.40
20568;DHT22;10442;49.932;11.592;2023-03-03T17:52:34;4.40;60.30
20568;DHT22;10442;49.932;11.592;2023-03-03T18:01:02;4.20;60.50
20568;DHT22;10442;49.932;11.592;2023-03-03T18:09:39;4.10;61.20
20568;DHT22;10442;49.932;11.592;2023-03-03T18:21:16;4.00;61.50
20568;DHT22;10442;49.932;11.592;2023-03-03T18:23:48;4.00;61.30
20568;DHT22;10442;49.932;11.592;2023-03-03T18:29:17;3.80;61.70
20568;DHT22;10442;49.932;11.592;2023-03-03T18:37:40;3.70;62.30
20568;DHT22;10442;49.932;11.592;2023-03-03T18:39:49;3.70;62.70
20568;DHT22;10442;49.932;11.592;2023-03-03T18:48:09;3.50;62.50
20568;DHT22;10442;49.932;11.592;2023-03-03T18:50:39;3.50;62.70
20568;DHT22;10442;49.932;11.592;2023-03-03T18:53:28;3.40;62.60
20568;DHT22;10442;49.932;11.592;2023-03-03T18:56:00;3.40;63.30
20568;DHT22;10442;49.932;11.592;2023-03-03T18:58:39;3.30;62.80
20568;DHT22;10442;49.932;11.592;2023-03-03T19:03:59;3.20;63.00
20568;DHT22;10442;49.932;11.592;2023-03-03T19:09:42;3.10;64.00
20568;DHT22;10442;49.932;11.592;2023-03-03T19:12:09;3.10;63.90
20568;DHT22;10442;49.932;11.592;2023-03-03T19:14:39;3.00;63.70
20568;DHT22;10442;49.932;11.592;2023-03-03T19:20:10;3.00;64.00
20568;DHT22;10442;49.932;11.592;2023-03-03T19:27:45;2.90;63.90
20568;DHT22;10442;49.932;11.592;2023-03-03T19:30:38;2.90;64.00
20568;DHT22;10442;49.932;11.592;2023-03-03T19:41:56;2.80;64.20
20568;DHT22;10442;49.932;11.592;2023-03-03T19:44:43;2.70;64.20
20568;DHT22;10442;49.932;11.592;2023-03-03T19:53:03;2.50;64.10
20568;DHT22;10442;49.932;11.592;2023-03-03T19:55:58;2.60;64.20
20568;DHT22;10442;49.932;11.592;2023-03-03T19:59:06;2.50;64.30
20568;DHT22;10442;49.932;11.592;2023-03-03T20:01:43;2.40;64.30
20568;DHT22;10442;49.932;11.592;2023-03-03T20:06:54;2.30;64.10
20568;DHT22;10442;49.932;11.592;2023-03-03T20:09:25;2.30;64.30
20568;DHT22;10442;49.932;11.592;2023-03-03T20:12:09;2.30;64.30
20568;DHT22;10442;49.932;11.592;2023-03-03T20:17:42;2.30;64.50
20568;DHT22;10442;49.932;11.592;2023-03-03T20:32:02;2.10;65.00
20568;DHT22;10442;49.932;11.592;2023-03-03T20:35:10;2.10;65.30
20568;DHT22;10442;49.932;11.592;2023-03-03T20:43:21;1.90;65.60
20568;DHT22;10442;49.932;11.592;2023-03-03T20:59:34;1.80;65.40
20568;DHT22;10442;49.932;11.592;2023-03-03T21:02:22;1.80;65.30
20568;DHT22;10442;49.932;11.592;2023-03-03T21:05:25;1.80;65.40
20568;DHT22;10442;49.932;11.592;2023-03-03T21:08:02;1.80;65.40
20568;DHT22;10442;49.932;11.592;2023-03-03T21:10:35;1.70;65.10
20568;DHT22;10442;49.932;11.592;2023-03-03T21:16:02;1.70;65.70
20568;DHT22;10442;49.932;11.592;2023-03-03T21:18:29;1.70;65.60
20568;DHT22;10442;49.932;11.592;2023-03-03T21:20:58;1.70;65.50
20568;DHT22;10442;49.932;11.592;2023-03-03T21:23:25;1.70;65.50
20568;DHT22;10442;49.932;11.592;2023-03-03T21:25:53;1.60;65.30
20568;DHT22;10442;49.932;11.592;2023-03-03T21:28:30;1.60;65.40
20568;DHT22;10442;49.932;11.592;2023-03-03T21:31:16;1.60;65.50
20568;DHT22;10442;49.932;11.592;2023-03-03T21:36:13;1.60;65.50
20568;DHT22;10442;49.932;11.592;2023-03-03T21:38:40;1.60;65.50
20568;DHT22;10442;49.932;11.592;2023-03-03T21:41:08;1.60;65.50
20568;DHT22;10442;49.932;11.592;2023-03-03T21:43:38;1.50;65.60
20568;DHT22;10442;49.932;11.592;2023-03-03T21:46:06;1.50;65.70